Time;durP1;ratioP1;P1;durP2;ratioP2;P2;SDS_P1;SDS_P2;PMS_P1;PMS_P2;Temp;Humidity;BMP_temperature;BMP_pressure;BME280_temperature;BME280_humidity;BME280_pressure;Samples;Min_cycle;Max_cycle;Signal;HPM_P1;HPM_P2
2023/05/09 00:01:20;;;;;;;6.55;3.00;;;15.40;99.90;;;;;;5040418;28;20064;-77
2023/05/09 00:03:46;;;;;;;5.40;3.10;;;15.40;99.90;;;;;;5035635;28;20045;-77
2023/05/09 00:06:12;;;;;;;5.18;3.28;;;15.40;99.90;;;;;;5040829;28;20132;-78
2023/05/09 00:08:38;;;;;;;6.07;3.53;;;15.40;99.90;;;;;;5034893;28;20077;-75
2023/05/09 00:11:04;;;;;;;4.60;3.17;;;15.40;99.90;;;;;;5035895;28;20029;-75
2023/05/09 00:13:29;;;;;;;7.60;3.72;;;15.30;99.90;;;;;;5037995;28;20076;-76
2023/05/09 00:15:56;;;;;;;5.28;3.20;;;15.30;99.90;;;;;;5039408;28;20041;-75
2023/05/09 00:18:22;;;;;;;3.90;2.92;;;15.30;99.90;;;;;;5038534;28;20116;-75
2023/05/09 00:20:49;;;;;;;5.45;3.15;;;15.20;99.90;;;;;;5040469;28;20025;-76
2023/05/09 00:23:15;;;;;;;5.35;3.33;;;15.20;99.90;;;;;;5040440;28;20450;-77
2023/05/09 00:25:41;;;;;;;7.15;3.45;;;15.20;99.90;;;;;;5035553;28;20060;-75
2023/05/09 00:28:07;;;;;;;4.22;2.83;;;15.20;99.90;;;;;;5039693;28;20058;-75
2023/05/09 00:30:33;;;;;;;5.55;3.33;;;15.10;99.90;;;;;;5042695;28;20032;-76
2023/05/09 00:32:58;;;;;;;5.72;3.53;;;15.10;99.90;;;;;;5045385;28;20033;-77
2023/05/09 00:35:24;;;;;;;6.82;4.07;;;15.10;99.90;;;;;;5038786;28;20024;-75
2023/05/09 00:37:50;;;;;;;6.90;3.65;;;15.10;99.90;;;;;;5040121;28;20028;-75
2023/05/09 00:40:15;;;;;;;5.60;3.65;;;15.10;99.90;;;;;;5048243;28;20111;-75
2023/05/09 00:42:41;;;;;;;8.40;3.65;;;15.10;99.90;;;;;;5039273;28;20037;-75
2023/05/09 00:45:07;;;;;;;6.32;3.95;;;15.20;99.90;;;;;;5039922;28;20082;-76
2023/05/09 00:47:33;;;;;;;5.47;3.13;;;15.20;99.90;;;;;;5043976;28;20021;-75
2023/05/09 00:50:01;;;;;;;7.22;3.58;;;15.20;99.90;;;;;;5040586;28;20028;-76
2023/05/09 00:52:27;;;;;;;4.22;3.08;;;15.10;99.90;;;;;;5043398;28;20467;-75
2023/05/09 00:54:54;;;;;;;5.60;3.35;;;15.00;99.90;;;;;;5043973;28;20032;-76
2023/05/09 00:57:20;;;;;;;6.30;3.78;;;15.00;99.90;;;;;;5044957;28;20112;-76
2023/05/09 00:59:46;;;;;;;5.90;3.35;;;15.00;99.90;;;;;;5039650;28;20534;-75
2023/05/09 01:02:12;;;;;;;4.68;3.22;;;15.00;99.90;;;;;;5045863;28;20083;-76
2023/05/09 01:04:39;;;;;;;6.00;3.30;;;14.80;99.90;;;;;;5040937;28;20494;-75
2023/05/09 01:07:25;;;;;;;6.03;3.78;;;14.90;99.90;;;;;;5040975;28;20033;-75
2023/05/09 01:10:11;;;;;;;6.63;3.10;;;14.90;99.90;;;;;;5040421;28;20556;-75
2023/05/09 01:12:52;;;;;;;4.85;3.28;;;15.00;99.90;;;;;;5045054;28;20048;-75
2023/05/09 01:15:30;;;;;;;8.13;3.25;;;15.00;99.90;;;;;;5039746;28;20037;-75
2023/05/09 01:18:10;;;;;;;7.82;3.88;;;15.10;99.90;;;;;;5037383;28;20104;-77
2023/05/09 01:20:45;;;;;;;6.60;3.30;;;15.10;99.90;;;;;;5042673;28;20052;-76
2023/05/09 01:23:48;;;;;;;6.18;3.50;;;15.00;99.90;;;;;;5037253;28;20088;-77
2023/05/09 01:26:26;;;;;;;6.07;4.18;;;15.00;99.90;;;;;;5045398;28;20076;-76
2023/05/09 01:29:21;;;;;;;7.68;4.00;;;14.90;99.90;;;;;;5039821;28;20064;-77
2023/05/09 01:31:50;;;;;;;7.38;4.68;;;14.90;99.90;;;;;;5044366;28;20035;-77
2023/05/09 01:34:18;;;;;;;7.05;4.32;;;14.90;99.90;;;;;;5044592;28;20048;-76
2023/05/09 01:36:48;;;;;;;8.85;3.92;;;14.80;99.90;;;;;;5036083;28;20492;-76
2023/05/09 01:39:16;;;;;;;7.32;4.13;;;14.80;99.90;;;;;;5042554;28;20040;-76
2023/05/09 01:41:42;;;;;;;8.18;5.43;;;14.80;99.90;;;;;;5043060;28;20032;-77
2023/05/09 01:44:10;;;;;;;9.05;5.70;;;14.80;99.90;;;;;;5046634;28;20021;-77
2023/05/09 01:46:36;;;;;;;7.78;5.32;;;14.80;99.90;;;;;;5040305;28;20108;-77
2023/05/09 01:49:04;;;;;;;7.85;5.28;;;14.80;99.90;;;;;;5042539;28;20032;-76
2023/05/09 01:51:30;;;;;;;8.00;5.63;;;14.70;99.90;;;;;;5036014;28;20021;-77
2023/05/09 01:53:58;;;;;;;8.20;5.13;;;14.70;99.90;;;;;;5036722;28;20032;-77
2023/05/09 01:56:25;;;;;;;8.48;5.72;;;14.80;99.90;;;;;;5044569;28;20502;-76
2023/05/09 01:58:51;;;;;;;9.10;5.50;;;14.80;99.90;;;;;;5040644;28;20033;-77
2023/05/09 02:01:18;;;;;;;6.22;4.82;;;14.60;99.90;;;;;;5039835;28;20083;-76
2023/05/09 02:03:47;;;;;;;7.50;5.18;;;14.60;99.90;;;;;;5040639;28;20037;-76
2023/05/09 02:06:14;;;;;;;7.45;4.15;;;14.60;99.90;;;;;;5042132;28;20025;-76
2023/05/09 02:08:41;;;;;;;9.23;4.30;;;14.60;99.90;;;;;;5038267;28;20037;-77
2023/05/09 02:11:07;;;;;;;6.20;4.45;;;14.80;99.90;;;;;;5042524;28;20029;-76
2023/05/09 02:13:32;;;;;;;7.38;4.47;;;14.80;99.90;;;;;;5042876;28;20800;-77
2023/05/09 02:15:59;;;;;;;6.43;3.47;;;14.80;99.90;;;;;;5043682;28;20025;-76
2023/05/09 02:18:26;;;;;;;6.10;4.40;;;14.80;99.90;;;;;;5043600;28;20047;-76
2023/05/09 02:20:52;;;;;;;8.35;3.95;;;14.70;99.90;;;;;;5038548;28;20078;-78
2023/05/09 02:23:18;;;;;;;5.68;3.88;;;14.70;99.90;;;;;;5042315;28;20481;-77
2023/05/09 02:25:45;;;;;;;5.45;3.38;;;14.70;99.90;;;;;;5037640;28;20029;-76
2023/05/09 02:28:12;;;;;;;4.88;2.65;;;14.70;99.90;;;;;;5040041;28;20483;-77
2023/05/09 02:30:43;;;;;;;5.40;3.22;;;14.70;99.90;;;;;;5037170;28;20041;-76
2023/05/09 02:33:11;;;;;;;5.28;3.63;;;14.60;99.90;;;;;;5044011;28;20049;-77
2023/05/09 02:35:43;;;;;;;7.45;3.20;;;14.70;99.90;;;;;;5041107;28;20030;-77
2023/05/09 02:38:09;;;;;;;8.98;3.60;;;14.70;99.90;;;;;;5040275;28;20090;-77
2023/05/09 02:40:35;;;;;;;7.10;4.78;;;14.60;99.90;;;;;;5037991;28;20131;-76
2023/05/09 02:43:01;;;;;;;6.78;3.92;;;14.60;99.90;;;;;;5039238;28;20121;-76
2023/05/09 02:45:26;;;;;;;6.60;4.10;;;14.50;99.90;;;;;;5036715;28;20124;-77
2023/05/09 02:47:52;;;;;;;6.75;3.60;;;14.50;99.90;;;;;;5043862;28;20025;-76
2023/05/09 02:50:18;;;;;;;5.65;3.75;;;14.60;99.90;;;;;;5040257;28;20132;-76
2023/05/09 02:52:44;;;;;;;6.93;4.50;;;14.50;99.90;;;;;;5034679;28;20032;-77
2023/05/09 02:55:10;;;;;;;6.05;3.40;;;14.60;99.90;;;;;;5041327;28;20544;-77
2023/05/09 02:57:36;;;;;;;7.18;3.90;;;14.50;99.90;;;;;;5038896;28;20029;-76
2023/05/09 03:00:03;;;;;;;5.68;3.33;;;14.60;99.90;;;;;;5036603;28;20135;-76
2023/05/09 03:02:28;;;;;;;5.25;3.00;;;14.70;99.90;;;;;;5036555;28;20080;-74
2023/05/09 03:04:54;;;;;;;5.45;4.00;;;14.70;99.90;;;;;;5038340;28;20541;-75
2023/05/09 03:07:19;;;;;;;5.38;3.38;;;14.80;99.90;;;;;;5034801;28;20056;-75
2023/05/09 03:09:45;;;;;;;7.32;3.75;;;14.80;99.90;;;;;;5036614;28;20056;-75
2023/05/09 03:12:11;;;;;;;4.68;3.22;;;14.80;99.90;;;;;;5041104;28;20028;-74
2023/05/09 03:14:36;;;;;;;6.63;4.00;;;14.90;99.90;;;;;;5033381;28;20124;-75
2023/05/09 03:17:02;;;;;;;6.40;3.55;;;14.90;99.90;;;;;;5030031;28;20116;-75
2023/05/09 03:19:27;;;;;;;4.57;3.35;;;14.80;99.90;;;;;;5026160;28;20030;-74
2023/05/09 03:21:53;;;;;;;4.55;3.05;;;14.80;99.90;;;;;;5031412;28;20709;-75
2023/05/09 03:24:19;;;;;;;4.95;3.47;;;14.70;99.90;;;;;;5036933;28;22817;-75
2023/05/09 03:26:44;;;;;;;7.90;4.20;;;14.70;99.90;;;;;;5035062;28;20033;-75
2023/05/09 03:29:10;;;;;;;7.55;4.90;;;14.70;99.90;;;;;;5038044;28;20025;-75
2023/05/09 03:31:36;;;;;;;6.18;4.32;;;14.70;99.90;;;;;;5034851;28;20051;-75
2023/05/09 03:34:01;;;;;;;7.03;4.90;;;14.80;99.90;;;;;;5032749;28;20029;-75
2023/05/09 03:36:27;;;;;;;8.10;4.70;;;14.80;99.90;;;;;;5033573;28;20036;-75
2023/05/09 03:38:52;;;;;;;5.63;3.70;;;14.80;99.90;;;;;;5033145;28;20048;-75
2023/05/09 03:41:18;;;;;;;8.45;5.22;;;14.90;99.90;;;;;;5035800;28;20690;-74
2023/05/09 03:43:44;;;;;;;6.55;4.40;;;14.90;99.90;;;;;;5030504;28;20056;-75
2023/05/09 03:46:10;;;;;;;8.43;4.82;;;14.80;99.90;;;;;;5030991;28;20052;-74
2023/05/09 03:48:35;;;;;;;8.48;4.43;;;14.80;99.90;;;;;;5029304;28;21966;-75
2023/05/09 03:51:04;;;;;;;6.95;4.03;;;14.90;99.90;;;;;;5031509;28;20624;-75
2023/05/09 03:53:30;;;;;;;6.95;4.05;;;14.80;99.90;;;;;;5042783;28;20055;-75
2023/05/09 03:55:56;;;;;;;7.75;4.40;;;14.80;99.90;;;;;;5033149;28;20057;-75
2023/05/09 03:58:21;;;;;;;7.82;4.45;;;14.80;99.90;;;;;;5033072;28;20094;-75
2023/05/09 04:00:47;;;;;;;7.47;4.47;;;14.80;99.90;;;;;;5026396;28;20029;-75
2023/05/09 04:03:13;;;;;;;5.18;3.70;;;14.80;99.90;;;;;;5031063;28;20526;-75
2023/05/09 04:05:39;;;;;;;8.18;4.30;;;14.80;99.90;;;;;;5034808;28;20479;-75
2023/05/09 04:08:05;;;;;;;7.70;4.20;;;14.80;99.90;;;;;;5027286;28;20076;-77
2023/05/09 04:10:31;;;;;;;7.82;3.90;;;14.80;99.90;;;;;;5031786;28;20758;-76
2023/05/09 04:12:57;;;;;;;4.97;3.50;;;14.70;99.90;;;;;;5035287;28;21039;-76
2023/05/09 04:15:22;;;;;;;6.30;3.70;;;14.70;99.90;;;;;;5029876;28;20029;-76
2023/05/09 04:17:48;;;;;;;5.50;4.10;;;14.80;99.90;;;;;;5028523;28;20442;-76
2023/05/09 04:20:14;;;;;;;9.70;5.00;;;14.80;99.90;;;;;;5023979;28;20661;-77
2023/05/09 04:22:39;;;;;;;5.55;3.72;;;14.80;99.90;;;;;;5027197;28;20168;-76
2023/05/09 04:25:06;;;;;;;7.78;3.70;;;14.80;99.90;;;;;;5028362;28;20128;-77
2023/05/09 04:27:31;;;;;;;7.15;4.32;;;14.80;99.90;;;;;;5034829;28;20033;-76
2023/05/09 04:29:57;;;;;;;6.50;4.90;;;14.80;99.90;;;;;;5034809;28;20927;-77
2023/05/09 04:32:23;;;;;;;5.88;4.53;;;14.80;99.90;;;;;;5035819;28;20112;-75
2023/05/09 04:34:49;;;;;;;6.45;4.82;;;14.80;99.90;;;;;;5038859;28;20057;-76
2023/05/09 04:37:14;;;;;;;6.63;4.70;;;14.90;99.90;;;;;;5030614;28;20118;-77
2023/05/09 04:39:40;;;;;;;7.45;5.45;;;14.90;99.90;;;;;;5038376;28;20068;-77
2023/05/09 04:42:06;;;;;;;9.40;5.03;;;14.90;99.90;;;;;;5030439;28;20037;-76
2023/05/09 04:44:32;;;;;;;8.20;5.18;;;15.00;99.90;;;;;;5029260;28;20091;-76
2023/05/09 04:46:58;;;;;;;7.72;4.45;;;15.00;99.90;;;;;;5033119;28;20079;-76
2023/05/09 04:49:23;;;;;;;10.60;4.68;;;15.10;99.90;;;;;;5035846;28;20029;-76
2023/05/09 04:51:50;;;;;;;7.65;4.75;;;15.10;99.90;;;;;;5030480;28;20029;-76
2023/05/09 04:54:16;;;;;;;8.23;5.20;;;15.00;99.90;;;;;;5034457;28;20399;-77
2023/05/09 04:56:41;;;;;;;7.57;4.50;;;15.00;99.90;;;;;;5032306;28;20033;-76
2023/05/09 04:59:07;;;;;;;8.80;4.43;;;15.10;99.90;;;;;;5034920;28;20028;-75
2023/05/09 05:01:32;;;;;;;6.95;4.90;;;15.10;99.90;;;;;;5030923;28;20079;-77
2023/05/09 05:03:58;;;;;;;5.97;4.45;;;15.20;99.90;;;;;;5031137;28;20033;-76
2023/05/09 05:06:24;;;;;;;7.13;5.18;;;15.20;99.90;;;;;;5034584;28;20028;-76
2023/05/09 05:08:49;;;;;;;8.82;4.45;;;15.20;99.90;;;;;;5028043;28;20399;-76
2023/05/09 05:11:16;;;;;;;8.25;4.72;;;15.20;99.90;;;;;;5029688;28;20086;-77
2023/05/09 05:13:43;;;;;;;6.90;4.63;;;15.20;99.90;;;;;;5029860;28;20522;-75
2023/05/09 05:16:08;;;;;;;9.95;5.25;;;15.30;99.90;;;;;;5045271;28;20387;-77
2023/05/09 05:18:34;;;;;;;13.70;5.15;;;15.30;99.90;;;;;;5039501;28;20040;-75
2023/05/09 05:21:00;;;;;;;8.65;5.45;;;15.40;99.90;;;;;;5040154;28;20055;-76
2023/05/09 05:23:26;;;;;;;8.95;5.57;;;15.40;99.90;;;;;;5033295;28;20045;-76
2023/05/09 05:25:51;;;;;;;7.10;5.22;;;15.50;99.90;;;;;;5030902;28;20038;-76
2023/05/09 05:28:17;;;;;;;6.70;5.00;;;15.50;99.90;;;;;;5034488;28;20033;-76
2023/05/09 05:30:43;;;;;;;7.47;4.78;;;15.70;99.90;;;;;;5030397;28;20034;-78
2023/05/09 05:33:08;;;;;;;6.70;4.85;;;15.70;99.90;;;;;;5028723;28;20120;-78
2023/05/09 05:35:34;;;;;;;7.57;5.13;;;15.70;99.90;;;;;;5039863;28;20411;-77
2023/05/09 05:38:00;;;;;;;7.18;5.28;;;15.80;99.90;;;;;;5042326;28;20155;-77
2023/05/09 05:40:26;;;;;;;7.93;5.43;;;15.80;99.90;;;;;;5034638;28;20029;-77
2023/05/09 05:42:51;;;;;;;7.45;5.70;;;15.80;99.90;;;;;;5033996;28;20033;-75
2023/05/09 05:45:17;;;;;;;8.68;6.00;;;15.90;99.90;;;;;;5035778;28;24537;-75
2023/05/09 05:47:43;;;;;;;9.60;5.88;;;15.90;99.90;;;;;;5028884;28;20115;-75
2023/05/09 05:50:10;;;;;;;10.05;5.05;;;15.90;99.90;;;;;;5032002;28;20033;-75
2023/05/09 05:52:40;;;;;;;8.65;6.10;;;15.80;99.90;;;;;;5037407;28;20040;-76
2023/05/09 05:55:07;;;;;;;10.80;5.75;;;15.80;99.90;;;;;;5032077;28;20040;-75
2023/05/09 05:57:34;;;;;;;7.15;5.53;;;15.90;99.90;;;;;;5030062;28;20151;-76
2023/05/09 06:00:00;;;;;;;9.40;6.35;;;15.90;99.90;;;;;;5037018;28;20025;-75
2023/05/09 06:02:26;;;;;;;7.20;5.47;;;15.90;99.90;;;;;;5033119;28;20052;-75
2023/05/09 06:04:51;;;;;;;7.63;5.57;;;15.90;99.90;;;;;;5028593;28;20037;-75
2023/05/09 06:07:17;;;;;;;9.35;5.65;;;16.00;99.90;;;;;;5035965;28;20502;-75
2023/05/09 06:09:43;;;;;;;8.52;5.53;;;16.10;99.90;;;;;;5037348;28;20475;-76
2023/05/09 06:12:08;;;;;;;10.80;5.93;;;16.10;99.90;;;;;;5036617;28;20146;-76
2023/05/09 06:14:34;;;;;;;11.38;6.15;;;16.10;99.90;;;;;;5031200;28;20033;-75
2023/05/09 06:17:00;;;;;;;12.35;6.75;;;16.10;99.90;;;;;;5032526;28;20443;-76
2023/05/09 06:19:25;;;;;;;8.18;6.55;;;16.00;99.90;;;;;;5034991;28;20029;-75
2023/05/09 06:21:51;;;;;;;10.15;6.80;;;16.00;99.90;;;;;;5026315;28;20051;-76
2023/05/09 06:24:17;;;;;;;9.60;5.72;;;16.10;99.90;;;;;;5032661;28;20033;-75
2023/05/09 06:26:43;;;;;;;10.27;6.45;;;16.30;99.90;;;;;;5031691;28;20353;-75
2023/05/09 06:29:09;;;;;;;8.20;6.10;;;16.40;99.90;;;;;;5038263;28;20049;-76
2023/05/09 06:31:37;;;;;;;9.15;6.72;;;16.40;99.90;;;;;;5029020;28;20024;-76
2023/05/09 06:34:03;;;;;;;11.43;6.88;;;16.40;99.90;;;;;;5025025;28;20086;-76
2023/05/09 06:36:29;;;;;;;9.60;6.32;;;16.30;99.90;;;;;;5030320;28;20025;-76
2023/05/09 06:38:55;;;;;;;8.85;6.28;;;16.30;99.90;;;;;;5036328;28;20085;-78
2023/05/09 06:41:21;;;;;;;8.57;5.85;;;16.20;99.90;;;;;;5045044;28;20029;-79
2023/05/09 06:43:46;;;;;;;8.70;5.78;;;16.30;99.90;;;;;;5036604;28;20036;-76
2023/05/09 06:46:12;;;;;;;13.80;6.80;;;16.20;99.90;;;;;;5030626;28;20029;-78
2023/05/09 06:48:38;;;;;;;7.50;5.78;;;16.40;99.90;;;;;;5031273;28;20136;-77
2023/05/09 06:51:03;;;;;;;6.80;5.60;;;16.50;99.90;;;;;;5030334;28;20353;-76
2023/05/09 06:53:29;;;;;;;10.82;6.13;;;16.40;99.90;;;;;;5033229;28;20029;-74
2023/05/09 06:55:55;;;;;;;12.25;6.03;;;16.40;99.90;;;;;;5036092;28;20042;-76
2023/05/09 06:58:21;;;;;;;7.47;5.57;;;16.50;99.90;;;;;;5033733;28;20021;-75
2023/05/09 07:00:47;;;;;;;10.98;6.70;;;16.50;99.90;;;;;;5038463;28;20113;-74
2023/05/09 07:03:12;;;;;;;10.43;6.90;;;16.70;99.90;;;;;;5034651;28;20131;-76
2023/05/09 07:05:38;;;;;;;11.50;6.13;;;16.80;99.90;;;;;;5040056;28;20437;-77
2023/05/09 07:08:04;;;;;;;20.92;6.85;;;16.90;99.90;;;;;;5032538;28;20040;-77
2023/05/09 07:10:30;;;;;;;8.95;6.10;;;16.90;99.90;;;;;;5033206;28;20064;-77
2023/05/09 07:12:55;;;;;;;11.18;6.05;;;16.80;99.90;;;;;;5034956;28;20037;-78
2023/05/09 07:15:21;;;;;;;11.15;5.85;;;17.00;99.90;;;;;;5029032;28;20028;-77
2023/05/09 07:17:47;;;;;;;7.57;5.03;;;17.00;99.90;;;;;;5032951;28;20037;-77
2023/05/09 07:20:12;;;;;;;10.68;6.40;;;17.20;99.90;;;;;;5037517;28;20048;-77
2023/05/09 07:22:38;;;;;;;8.80;5.43;;;17.40;99.90;;;;;;5037178;28;20084;-77
2023/05/09 07:25:08;;;;;;;7.85;5.10;;;17.40;99.90;;;;;;5032599;28;20033;-78
2023/05/09 07:27:35;;;;;;;15.52;5.93;;;17.50;99.90;;;;;;5031768;28;20092;-76
2023/05/09 07:30:04;;;;;;;9.30;5.80;;;17.50;99.90;;;;;;5036813;28;20033;-77
2023/05/09 07:32:30;;;;;;;7.43;5.45;;;17.70;99.90;;;;;;5033285;28;20032;-76
2023/05/09 07:34:56;;;;;;;6.85;5.53;;;17.70;99.90;;;;;;5033658;28;20029;-77
2023/05/09 07:37:22;;;;;;;7.97;5.88;;;17.70;99.90;;;;;;5038095;28;20117;-77
2023/05/09 07:39:48;;;;;;;10.10;7.00;;;17.60;99.90;;;;;;5034735;28;20124;-76
2023/05/09 07:42:13;;;;;;;8.13;6.50;;;17.80;99.90;;;;;;5031607;28;20823;-77
2023/05/09 07:44:39;;;;;;;12.18;6.57;;;17.70;99.90;;;;;;5031682;28;20029;-77
2023/05/09 07:47:05;;;;;;;11.15;6.45;;;17.70;99.90;;;;;;5030587;28;20118;-78
2023/05/09 07:49:31;;;;;;;12.93;5.95;;;17.70;99.90;;;;;;5030832;28;20017;-79
2023/05/09 07:51:57;;;;;;;10.65;5.82;;;17.80;99.90;;;;;;5033864;28;20044;-78
2023/05/09 07:54:22;;;;;;;8.38;5.50;;;17.90;99.90;;;;;;5033955;28;20372;-77
2023/05/09 07:56:48;;;;;;;8.02;5.88;;;18.00;99.90;;;;;;5033981;28;20033;-76
2023/05/09 07:59:14;;;;;;;8.75;5.85;;;18.20;99.90;;;;;;5031671;28;20032;-79
2023/05/09 08:01:40;;;;;;;42.47;9.63;;;18.20;99.90;;;;;;5029203;28;20529;-79
2023/05/09 08:04:07;;;;;;;9.55;6.45;;;18.20;99.90;;;;;;5038926;28;20041;-78
2023/05/09 08:06:33;;;;;;;7.15;5.72;;;18.30;99.90;;;;;;5030212;28;20606;-76
2023/05/09 08:08:59;;;;;;;8.07;5.85;;;18.20;99.90;;;;;;5035501;28;20020;-77
2023/05/09 08:11:25;;;;;;;10.13;6.65;;;18.00;99.90;;;;;;5022859;28;20038;-77
2023/05/09 08:13:51;;;;;;;11.18;6.63;;;18.10;99.90;;;;;;5029418;28;20653;-76
2023/05/09 08:16:16;;;;;;;8.88;6.65;;;18.20;99.90;;;;;;5029564;28;20075;-77
2023/05/09 08:18:43;;;;;;;8.30;6.40;;;17.90;99.90;;;;;;5033292;28;20159;-76
2023/05/09 08:21:08;;;;;;;11.60;6.55;;;18.30;99.90;;;;;;5032971;28;20384;-77
2023/05/09 08:23:34;;;;;;;11.55;5.97;;;18.20;99.90;;;;;;5033516;28;20048;-77
2023/05/09 08:26:00;;;;;;;8.15;4.95;;;18.30;99.90;;;;;;5035626;28;20298;-76
2023/05/09 08:28:27;;;;;;;8.27;4.22;;;18.60;99.90;;;;;;5029809;28;20035;-76
2023/05/09 08:30:53;;;;;;;6.60;4.85;;;18.50;99.90;;;;;;5031647;28;20024;-76
2023/05/09 08:33:19;;;;;;;6.15;4.70;;;18.70;99.90;;;;;;5038467;28;20029;-76
2023/05/09 08:35:49;;;;;;;5.75;3.53;;;18.40;99.90;;;;;;5026343;28;20029;-77
2023/05/09 08:38:14;;;;;;;6.18;4.78;;;18.50;99.90;;;;;;5034149;28;20189;-77
2023/05/09 08:40:40;;;;;;;5.30;3.80;;;18.50;99.90;;;;;;5033426;28;20568;-77
2023/05/09 08:43:07;;;;;;;8.18;3.72;;;18.70;99.90;;;;;;5033867;28;20388;-77
2023/05/09 08:45:38;;;;;;;6.07;2.97;;;18.90;99.90;;;;;;5021827;28;20029;-77
2023/05/09 08:48:05;;;;;;;4.25;2.72;;;19.20;99.90;;;;;;5030557;28;20116;-77
2023/05/09 08:50:31;;;;;;;6.00;2.90;;;19.40;99.90;;;;;;5031892;28;20497;-78
2023/05/09 08:52:58;;;;;;;5.85;3.05;;;19.40;99.90;;;;;;5044198;28;20032;-78
2023/05/09 08:55:24;;;;;;;4.60;2.58;;;19.20;99.90;;;;;;5040555;28;20033;-78
2023/05/09 08:57:51;;;;;;;9.93;3.47;;;19.20;99.90;;;;;;5034589;28;20164;-78
2023/05/09 09:00:19;;;;;;;7.90;3.30;;;19.10;99.90;;;;;;5043256;28;20085;-79
2023/05/09 09:02:45;;;;;;;4.63;2.63;;;19.30;99.90;;;;;;5037026;28;20041;-78
2023/05/09 09:05:11;;;;;;;5.10;3.00;;;19.10;99.90;;;;;;5031615;28;20508;-78
2023/05/09 09:07:39;;;;;;;6.50;2.88;;;19.10;99.90;;;;;;5039497;28;20517;-78
2023/05/09 09:10:07;;;;;;;4.20;2.80;;;19.00;99.90;;;;;;5030582;28;20041;-78
2023/05/09 09:12:34;;;;;;;5.65;3.78;;;19.00;99.90;;;;;;5036562;28;20033;-78
2023/05/09 09:15:04;;;;;;;7.03;2.97;;;19.00;99.90;;;;;;5034495;28;20029;-78
2023/05/09 09:17:32;;;;;;;5.13;3.08;;;19.20;99.90;;;;;;5034760;28;20037;-78
2023/05/09 09:20:00;;;;;;;5.15;3.22;;;19.20;99.90;;;;;;5032208;28;20086;-78
2023/05/09 09:22:32;;;;;;;4.03;2.80;;;19.00;99.90;;;;;;5030311;28;20037;-78
2023/05/09 09:25:00;;;;;;;4.35;2.80;;;19.00;99.90;;;;;;5031318;28;20025;-78
2023/05/09 09:27:26;;;;;;;4.45;2.78;;;18.90;99.90;;;;;;5030812;28;20029;-78
2023/05/09 09:29:51;;;;;;;11.32;3.65;;;18.90;99.90;;;;;;5038386;28;20102;-78
2023/05/09 09:32:18;;;;;;;5.28;3.38;;;19.10;99.90;;;;;;5033507;28;20586;-78
2023/05/09 09:34:48;;;;;;;6.35;4.68;;;19.10;99.90;;;;;;5032527;28;20138;-78
2023/05/09 09:37:23;;;;;;;7.28;4.38;;;19.10;99.90;;;;;;5027732;28;20034;-78
2023/05/09 09:39:55;;;;;;;6.95;4.35;;;19.00;99.90;;;;;;5037397;28;20029;-78
2023/05/09 09:42:22;;;;;;;5.75;3.70;;;18.80;99.90;;;;;;5036129;28;20037;-78
2023/05/09 09:45:12;;;;;;;6.47;3.85;;;19.00;99.90;;;;;;5033573;28;20025;-78
2023/05/09 09:47:38;;;;;;;8.05;4.13;;;19.20;99.90;;;;;;5034952;28;20022;-78
2023/05/09 09:50:18;;;;;;;9.30;4.10;;;19.30;99.90;;;;;;5034029;28;20083;-78
2023/05/09 09:52:54;;;;;;;5.05;3.28;;;19.40;99.90;;;;;;5039037;28;20056;-78
2023/05/09 09:55:21;;;;;;;5.10;3.38;;;19.30;99.90;;;;;;5036789;28;20026;-78
2023/05/09 09:57:47;;;;;;;7.30;3.70;;;19.30;99.90;;;;;;5029439;28;20031;-78
2023/05/09 10:00:23;;;;;;;6.70;3.60;;;19.20;99.90;;;;;;5033248;28;20048;-78
2023/05/09 10:02:54;;;;;;;8.15;4.10;;;19.30;99.90;;;;;;5040914;28;20052;-78
2023/05/09 10:05:25;;;;;;;6.20;3.35;;;19.20;99.90;;;;;;5039108;28;20036;-78
2023/05/09 10:07:58;;;;;;;4.60;3.38;;;19.20;99.90;;;;;;5036838;28;20029;-78
2023/05/09 10:10:26;;;;;;;5.18;3.03;;;19.50;99.90;;;;;;5041850;28;20367;-79
2023/05/09 10:12:55;;;;;;;5.55;3.67;;;19.60;99.90;;;;;;5032157;28;20033;-78
2023/05/09 10:15:21;;;;;;;5.65;3.47;;;20.00;99.90;;;;;;5033190;28;20103;-78
2023/05/09 10:17:52;;;;;;;5.38;2.90;;;20.20;99.90;;;;;;5028659;28;20033;-78
2023/05/09 10:20:18;;;;;;;4.32;2.78;;;20.20;99.90;;;;;;5039357;28;20040;-78
2023/05/09 10:22:44;;;;;;;6.57;2.67;;;20.10;99.90;;;;;;5035223;28;20119;-78
2023/05/09 10:25:14;;;;;;;5.90;2.65;;;20.00;99.90;;;;;;5032304;28;20025;-78
2023/05/09 10:27:43;;;;;;;4.38;2.72;;;20.00;99.90;;;;;;5029102;28;20860;-78
2023/05/09 10:30:21;;;;;;;4.10;2.45;;;20.10;99.90;;;;;;5029056;28;20104;-78
2023/05/09 10:32:53;;;;;;;6.47;2.67;;;20.20;99.90;;;;;;5036122;28;20115;-78
2023/05/09 10:35:25;;;;;;;6.80;2.83;;;20.30;99.90;;;;;;5035600;28;20506;-78
2023/05/09 10:37:54;;;;;;;5.55;2.50;;;20.30;99.90;;;;;;5030319;28;20029;-78
2023/05/09 10:40:20;;;;;;;4.20;2.35;;;20.40;99.90;;;;;;5027565;28;20035;-78
2023/05/09 10:42:45;;;;;;;5.25;2.85;;;20.20;99.90;;;;;;5033214;28;20033;-78
2023/05/09 10:45:11;;;;;;;4.10;2.42;;;20.30;99.90;;;;;;5029513;28;20024;-78
2023/05/09 10:47:42;;;;;;;4.85;2.58;;;20.50;99.90;;;;;;5035390;28;20114;-78
2023/05/09 10:50:11;;;;;;;4.53;1.83;;;20.60;99.90;;;;;;5028199;28;20034;-78
2023/05/09 10:53:09;;;;;;;3.60;2.20;;;20.50;99.90;;;;;;5032416;28;20056;-79
2023/05/09 10:56:00;;;;;;;3.97;1.85;;;20.50;99.90;;;;;;5033929;28;20040;-78
2023/05/09 10:58:32;;;;;;;3.28;1.80;;;20.40;99.90;;;;;;5042148;28;20032;-78
2023/05/09 11:01:04;;;;;;;3.20;2.05;;;20.40;99.90;;;;;;5034692;28;20040;-78
2023/05/09 11:03:53;;;;;;;3.92;1.92;;;20.40;99.90;;;;;;5028655;28;20029;-78
2023/05/09 11:06:44;;;;;;;3.63;2.33;;;20.50;99.90;;;;;;5031841;28;20033;-78
2023/05/09 11:09:28;;;;;;;6.15;2.00;;;20.60;99.90;;;;;;5036760;28;20064;-78
2023/05/09 11:12:09;;;;;;;3.40;2.03;;;20.60;99.90;;;;;;5030237;28;20056;-78
2023/05/09 11:14:43;;;;;;;4.00;1.77;;;20.50;99.90;;;;;;5033404;28;20030;-78
2023/05/09 11:17:14;;;;;;;3.38;1.92;;;20.60;99.90;;;;;;5026168;28;20491;-78
2023/05/09 11:19:45;;;;;;;3.58;2.42;;;20.90;99.80;;;;;;5036991;28;20391;-78
2023/05/09 11:22:20;;;;;;;4.20;3.05;;;21.20;99.40;;;;;;5027991;28;20624;-78
2023/05/09 11:24:50;;;;;;;4.28;2.33;;;21.20;99.90;;;;;;5034053;28;20086;-78
2023/05/09 11:27:20;;;;;;;7.07;2.53;;;20.70;99.80;;;;;;5031412;28;20036;-79
2023/05/09 11:29:53;;;;;;;5.22;2.05;;;20.90;99.90;;;;;;5036406;28;20032;-78
2023/05/09 11:32:20;;;;;;;5.07;2.97;;;20.60;99.90;;;;;;5028761;28;20025;-78
2023/05/09 11:34:48;;;;;;;5.68;3.42;;;20.70;99.90;;;;;;5048824;28;20387;-80
2023/05/09 11:37:19;;;;;;;4.88;3.10;;;20.80;99.90;;;;;;5028543;28;20037;-78
2023/05/09 11:39:57;;;;;;;5.57;3.17;;;20.60;99.90;;;;;;5032097;28;20041;-79
2023/05/09 11:42:24;;;;;;;5.78;2.70;;;20.60;99.90;;;;;;5039768;28;20033;-78
2023/05/09 11:44:51;;;;;;;6.47;3.92;;;21.00;99.90;;;;;;5031786;28;20030;-79
2023/05/09 11:47:17;;;;;;;11.05;3.72;;;21.50;99.90;;;;;;5037939;28;20418;-78
2023/05/09 11:49:43;;;;;;;5.75;3.58;;;21.30;99.90;;;;;;5028735;28;20033;-78
2023/05/09 11:52:08;;;;;;;5.07;3.20;;;21.20;99.90;;;;;;5037919;28;20032;-78
2023/05/09 11:54:38;;;;;;;4.93;3.17;;;20.90;99.90;;;;;;5028323;28;20037;-78
2023/05/09 11:57:05;;;;;;;5.22;3.10;;;20.90;99.90;;;;;;5026335;28;20033;-78
2023/05/09 11:59:32;;;;;;;4.40;2.70;;;20.90;99.90;;;;;;5026711;28;20034;-78
2023/05/09 12:02:05;;;;;;;5.53;3.92;;;20.80;99.90;;;;;;5034200;28;20053;-78
2023/05/09 12:04:32;;;;;;;6.43;3.33;;;20.60;99.90;;;;;;5028281;28;20091;-78
2023/05/09 12:06:59;;;;;;;6.03;3.20;;;20.40;99.90;;;;;;5026504;28;20099;-78
2023/05/09 12:09:29;;;;;;;5.80;3.10;;;20.30;99.90;;;;;;5029111;28;20108;-78
2023/05/09 12:11:54;;;;;;;10.18;3.70;;;20.10;99.90;;;;;;5025452;28;20021;-78
2023/05/09 12:14:27;;;;;;;12.75;3.97;;;20.20;99.90;;;;;;5033679;28;20143;-78
2023/05/09 12:16:53;;;;;;;5.63;3.45;;;19.90;99.90;;;;;;5032147;28;20031;-78
2023/05/09 12:19:18;;;;;;;5.65;3.15;;;19.50;99.90;;;;;;5029670;28;20026;-78
2023/05/09 12:21:44;;;;;;;5.57;3.60;;;19.50;99.90;;;;;;5045157;28;20029;-78
2023/05/09 12:24:10;;;;;;;7.43;3.08;;;19.60;99.90;;;;;;5032736;28;20038;-78
2023/05/09 12:26:35;;;;;;;4.70;3.08;;;19.60;99.90;;;;;;5039444;28;20017;-78
2023/05/09 12:29:01;;;;;;;3.92;2.80;;;19.60;99.90;;;;;;5036488;28;20056;-78
2023/05/09 12:31:27;;;;;;;4.53;2.90;;;19.30;99.90;;;;;;5042278;28;20037;-78
2023/05/09 12:33:54;;;;;;;6.05;3.30;;;19.10;99.90;;;;;;5031123;28;20463;-78
2023/05/09 12:36:20;;;;;;;4.43;2.80;;;19.00;99.90;;;;;;5037977;28;20039;-78
2023/05/09 12:38:53;;;;;;;3.95;2.40;;;18.80;99.90;;;;;;5041886;28;20037;-78
2023/05/09 12:41:20;;;;;;;3.85;2.30;;;18.90;99.90;;;;;;5030998;28;20030;-78
2023/05/09 12:43:48;;;;;;;5.57;2.33;;;18.90;99.90;;;;;;5030114;28;20048;-78
2023/05/09 12:46:17;;;;;;;4.28;2.65;;;18.80;99.90;;;;;;5038969;28;20037;-78
2023/05/09 12:48:43;;;;;;;3.95;2.40;;;19.00;99.90;;;;;;5026199;28;20069;-78